Time;durP1;ratioP1;P1;durP2;ratioP2;P2;SDS_P1;SDS_P2;PMS_P1;PMS_P2;Temp;Humidity;BMP_temperature;BMP_pressure;BME280_temperature;BME280_humidity;BME280_pressure;Samples;Min_cycle;Max_cycle;Signal;HPM_P1;HPM_P2
2021/06/05 00:01:45;;;;;;;20.55;11.68;;;;;;;;;;5058492;28;20119;-50
2021/06/05 00:04:11;;;;;;;21.50;12.98;;;;;;;;;;5061637;28;20060;-55
2021/06/05 00:06:37;;;;;;;20.00;12.45;;;;;;;;;;5057926;28;20094;-52
2021/06/05 00:09:06;;;;;;;25.38;13.70;;;;;;;;;;5063777;28;20072;-54
2021/06/05 00:11:35;;;;;;;20.92;12.77;;;;;;;;;;5059635;28;20040;-49
2021/06/05 00:14:02;;;;;;;24.00;13.68;;;;;;;;;;5063103;28;20122;-53
2021/06/05 00:16:33;;;;;;;22.13;12.48;;;;;;;;;;5061279;28;20037;-48
2021/06/05 00:18:59;;;;;;;22.27;13.60;;;;;;;;;;5069453;28;20036;-53
2021/06/05 00:21:27;;;;;;;24.17;14.70;;;;;;;;;;5079804;28;20072;-54
2021/06/05 00:23:53;;;;;;;20.58;12.98;;;;;;;;;;5083385;28;20050;-53
2021/06/05 00:26:21;;;;;;;23.48;13.95;;;;;;;;;;5079535;28;20029;-56
2021/06/05 00:28:47;;;;;;;25.77;14.93;;;;;;;;;;5067047;28;20120;-57
2021/06/05 00:31:13;;;;;;;23.80;15.93;;;;;;;;;;5084648;28;20070;-52
2021/06/05 00:33:39;;;;;;;24.05;14.27;;;;;;;;;;5081064;28;20097;-53
2021/06/05 00:36:10;;;;;;;27.52;16.02;;;;;;;;;;5100604;28;20042;-57
2021/06/05 00:38:37;;;;;;;25.63;15.98;;;;;;;;;;5078301;28;20048;-54
2021/06/05 00:41:03;;;;;;;31.90;20.17;;;;;;;;;;5077005;28;20037;-54
2021/06/05 00:43:32;;;;;;;35.67;22.48;;;;;;;;;;5073529;28;20048;-54
2021/06/05 00:45:58;;;;;;;;;;;;;;;;;;5083070;28;20051;-57
2021/06/05 00:48:25;;;;;;;39.40;22.38;;;;;;;;;;5079475;28;19934;-54
2021/06/05 00:50:53;;;;;;;41.92;24.50;;;;;;;;;;5100063;28;20048;-53
2021/06/05 00:53:21;;;;;;;36.88;22.45;;;;;;;;;;5082108;28;20056;-50
2021/06/05 00:55:48;;;;;;;37.77;22.80;;;;;;;;;;5080382;28;20052;-52
2021/06/05 00:58:14;;;;;;;34.35;22.65;;;;;;;;;;5079222;28;20144;-50
2021/06/05 01:00:46;;;;;;;39.63;23.77;;;;;;;;;;5083253;28;20056;-53
2021/06/05 01:03:13;;;;;;;34.55;21.90;;;;;;;;;;5077706;28;20036;-52
2021/06/05 01:05:40;;;;;;;37.53;22.33;;;;;;;;;;5076725;28;20042;-55
2021/06/05 01:08:14;;;;;;;41.70;22.85;;;;;;;;;;5078894;28;20064;-53
2021/06/05 01:10:41;;;;;;;37.40;23.50;;;;;;;;;;5084198;28;20032;-54
2021/06/05 01:13:12;;;;;;;38.28;23.27;;;;;;;;;;5080558;28;20121;-54
2021/06/05 01:15:40;;;;;;;36.15;22.83;;;;;;;;;;5063305;28;20049;-56
2021/06/05 01:18:09;;;;;;;40.65;23.08;;;;;;;;;;5062906;28;20057;-51
2021/06/05 01:20:40;;;;;;;43.17;24.33;;;;;;;;;;5077120;28;20079;-49
2021/06/05 01:23:15;;;;;;;37.92;24.30;;;;;;;;;;5082198;28;20055;-49
2021/06/05 01:25:55;;;;;;;41.17;23.88;;;;;;;;;;5077473;28;20092;-54
2021/06/05 01:28:26;;;;;;;40.28;23.08;;;;;;;;;;5070289;28;20052;-51
2021/06/05 01:30:53;;;;;;;41.38;23.33;;;;;;;;;;5074607;28;20060;-53
2021/06/05 01:33:21;;;;;;;42.13;24.23;;;;;;;;;;5062513;28;20068;-52
2021/06/05 01:35:50;;;;;;;41.00;24.17;;;;;;;;;;5074089;28;20028;-48
2021/06/05 01:38:17;;;;;;;46.63;25.17;;;;;;;;;;5078944;28;20042;-51
2021/06/05 01:40:45;;;;;;;41.83;24.25;;;;;;;;;;5079017;28;20044;-49
2021/06/05 01:43:11;;;;;;;46.40;26.48;;;;;;;;;;5081568;28;20036;-50
2021/06/05 01:45:40;;;;;;;44.13;24.90;;;;;;;;;;5077533;28;20051;-54
2021/06/05 01:48:07;;;;;;;47.30;25.20;;;;;;;;;;5081261;28;20037;-52
2021/06/05 01:50:36;;;;;;;45.22;23.92;;;;;;;;;;5085738;28;20044;-54
2021/06/05 01:53:01;;;;;;;;;;;;;;;;;;5063142;28;20069;-53
2021/06/05 01:55:30;;;;;;;46.97;26.05;;;;;;;;;;5063759;28;19927;-52
2021/06/05 01:57:58;;;;;;;48.25;26.02;;;;;;;;;;5085188;28;20047;-49
2021/06/05 02:00:25;;;;;;;48.23;25.97;;;;;;;;;;5076416;28;20040;-49
2021/06/05 02:02:53;;;;;;;48.60;26.47;;;;;;;;;;5060279;28;20047;-49
2021/06/05 02:05:20;;;;;;;51.20;26.60;;;;;;;;;;5060521;28;20274;-55
2021/06/05 02:07:46;;;;;;;46.00;24.08;;;;;;;;;;5082663;28;20166;-50
2021/06/05 02:10:14;;;;;;;49.40;27.48;;;;;;;;;;5082644;28;20068;-49
2021/06/05 02:12:40;;;;;;;50.97;27.27;;;;;;;;;;5077260;28;20059;-48
2021/06/05 02:15:09;;;;;;;46.67;26.25;;;;;;;;;;5082577;28;20041;-49
2021/06/05 02:17:37;;;;;;;48.30;27.13;;;;;;;;;;5079247;28;20101;-52
2021/06/05 02:20:08;;;;;;;51.73;26.83;;;;;;;;;;5082394;28;20052;-48
2021/06/05 02:22:35;;;;;;;54.35;25.80;;;;;;;;;;5078865;28;20055;-49
2021/06/05 02:25:04;;;;;;;48.83;25.40;;;;;;;;;;5064061;28;20036;-51
2021/06/05 02:27:31;;;;;;;49.05;26.45;;;;;;;;;;5077843;28;20048;-54
2021/06/05 02:29:58;;;;;;;45.28;25.13;;;;;;;;;;5098838;28;20044;-52
2021/06/05 02:32:25;;;;;;;48.03;26.15;;;;;;;;;;5082185;28;20124;-46
2021/06/05 02:34:53;;;;;;;52.10;27.05;;;;;;;;;;5084673;28;20036;-45
2021/06/05 02:37:23;;;;;;;48.00;25.70;;;;;;;;;;5062209;28;20032;-50
2021/06/05 02:39:52;;;;;;;51.08;26.10;;;;;;;;;;5074080;28;20040;-51
2021/06/05 02:42:22;;;;;;;50.70;27.48;;;;;;;;;;5078305;28;20047;-54
2021/06/05 02:44:49;;;;;;;53.35;25.48;;;;;;;;;;5082117;28;20052;-52
2021/06/05 02:47:16;;;;;;;49.47;26.45;;;;;;;;;;5078810;28;20032;-50
2021/06/05 02:49:42;;;;;;;52.83;26.75;;;;;;;;;;5081719;28;20089;-47
2021/06/05 02:52:10;;;;;;;57.25;27.58;;;;;;;;;;5078759;28;20045;-50
2021/06/05 02:54:38;;;;;;;57.72;27.17;;;;;;;;;;5082781;28;20039;-50
2021/06/05 02:57:05;;;;;;;61.88;29.33;;;;;;;;;;5082841;28;20032;-48
2021/06/05 02:59:32;;;;;;;63.05;28.13;;;;;;;;;;5075317;28;20045;-52
2021/06/05 03:01:58;;;;;;;60.33;27.92;;;;;;;;;;5064149;28;20055;-55
2021/06/05 03:04:24;;;;;;;64.28;28.40;;;;;;;;;;5076780;28;20092;-51
2021/06/05 03:06:51;;;;;;;59.70;27.42;;;;;;;;;;5082517;28;20036;-53
2021/06/05 03:09:19;;;;;;;63.60;27.10;;;;;;;;;;5080409;28;20045;-56
2021/06/05 03:11:47;;;;;;;61.50;28.33;;;;;;;;;;5083651;28;20079;-51
2021/06/05 03:14:14;;;;;;;61.35;27.48;;;;;;;;;;5081364;28;20060;-51
2021/06/05 03:16:39;;;;;;;61.65;27.92;;;;;;;;;;5081891;28;20055;-53
2021/06/05 03:19:06;;;;;;;64.57;27.75;;;;;;;;;;5077959;28;20032;-54
2021/06/05 03:21:33;;;;;;;62.30;26.83;;;;;;;;;;5082989;28;20119;-53
2021/06/05 03:23:59;;;;;;;56.28;26.42;;;;;;;;;;5060604;28;20095;-54
2021/06/05 03:26:25;;;;;;;66.05;26.42;;;;;;;;;;5081726;28;20129;-54
2021/06/05 03:28:52;;;;;;;70.20;27.25;;;;;;;;;;5073766;28;20078;-53
2021/06/05 03:31:20;;;;;;;66.63;27.55;;;;;;;;;;5060968;28;20052;-50
2021/06/05 03:33:46;;;;;;;62.80;27.70;;;;;;;;;;5059780;28;20053;-55
2021/06/05 03:36:13;;;;;;;59.30;26.77;;;;;;;;;;5082052;28;20055;-52
2021/06/05 03:38:41;;;;;;;57.42;25.83;;;;;;;;;;5064014;28;20029;-52
2021/06/05 03:41:08;;;;;;;61.83;26.67;;;;;;;;;;5057252;28;20322;-51
2021/06/05 03:43:34;;;;;;;64.57;28.48;;;;;;;;;;5060228;28;20033;-55
2021/06/05 03:46:01;;;;;;;64.03;27.30;;;;;;;;;;5057581;28;20086;-54
2021/06/05 03:48:27;;;;;;;62.05;26.95;;;;;;;;;;5061181;28;20053;-48
2021/06/05 03:50:54;;;;;;;68.95;28.33;;;;;;;;;;5057099;28;20052;-55
2021/06/05 03:53:20;;;;;;;55.80;26.63;;;;;;;;;;5061893;28;20110;-54
2021/06/05 03:55:46;;;;;;;59.25;26.52;;;;;;;;;;5057505;28;20049;-52
2021/06/05 03:58:13;;;;;;;66.90;27.65;;;;;;;;;;5061914;28;20053;-48
2021/06/05 04:00:40;;;;;;;60.05;26.05;;;;;;;;;;5072582;28;20036;-53
2021/06/05 04:03:07;;;;;;;66.45;27.60;;;;;;;;;;5114118;28;20040;-46
2021/06/05 04:05:35;;;;;;;65.07;26.83;;;;;;;;;;5089925;28;20021;-49
2021/06/05 04:08:05;;;;;;;65.88;26.25;;;;;;;;;;5082028;28;20317;-46
2021/06/05 04:10:31;;;;;;;61.35;25.70;;;;;;;;;;5091291;28;20035;-46
2021/06/05 04:12:58;;;;;;;60.58;26.80;;;;;;;;;;5059780;28;20060;-47
2021/06/05 04:15:25;;;;;;;60.88;24.98;;;;;;;;;;5055692;28;20064;-53
2021/06/05 04:17:58;;;;;;;60.60;26.17;;;;;;;;;;5059257;28;20041;-51
2021/06/05 04:20:25;;;;;;;67.28;26.52;;;;;;;;;;5057185;28;20036;-51
2021/06/05 04:22:52;;;;;;;58.43;25.50;;;;;;;;;;5058973;28;20041;-49
2021/06/05 04:25:18;;;;;;;67.65;27.88;;;;;;;;;;5058470;28;20148;-50
2021/06/05 04:27:44;;;;;;;59.42;24.00;;;;;;;;;;5074742;28;20028;-50
2021/06/05 04:30:12;;;;;;;61.22;25.83;;;;;;;;;;5080778;28;20060;-51
2021/06/05 04:32:38;;;;;;;64.82;25.27;;;;;;;;;;5060392;28;20041;-53
2021/06/05 04:35:05;;;;;;;59.30;24.73;;;;;;;;;;5060231;28;20044;-52
2021/06/05 04:37:33;;;;;;;56.45;23.52;;;;;;;;;;5056672;28;20029;-53
2021/06/05 04:39:59;;;;;;;;;;;;;;;;;;5059386;28;20175;-50
2021/06/05 04:42:25;;;;;;;55.67;21.58;;;;;;;;;;5045846;28;19953;-52
2021/06/05 04:44:52;;;;;;;56.90;22.98;;;;;;;;;;5056926;28;20096;-53
2021/06/05 04:47:18;;;;;;;55.72;24.05;;;;;;;;;;5055705;28;20110;-52
2021/06/05 04:49:45;;;;;;;61.60;25.77;;;;;;;;;;5044291;28;20034;-55
2021/06/05 04:52:11;;;;;;;53.20;22.95;;;;;;;;;;5043223;28;20052;-54
2021/06/05 04:54:38;;;;;;;53.40;21.63;;;;;;;;;;5064008;28;20047;-55
2021/06/05 04:57:05;;;;;;;47.75;19.73;;;;;;;;;;5060927;28;20117;-52
2021/06/05 04:59:33;;;;;;;42.13;18.42;;;;;;;;;;5063340;28;20040;-54
2021/06/05 05:01:59;;;;;;;44.15;18.75;;;;;;;;;;5062888;28;20138;-50
2021/06/05 05:04:25;;;;;;;42.65;19.13;;;;;;;;;;5060029;28;20055;-56
2021/06/05 05:06:51;;;;;;;41.13;19.25;;;;;;;;;;5062092;28;20040;-52
2021/06/05 05:09:20;;;;;;;46.75;18.75;;;;;;;;;;5059455;28;20033;-53
2021/06/05 05:11:48;;;;;;;47.10;18.70;;;;;;;;;;5064985;28;20040;-56
2021/06/05 05:14:13;;;;;;;42.33;18.30;;;;;;;;;;5059434;28;20045;-56
2021/06/05 05:16:40;;;;;;;41.65;18.42;;;;;;;;;;5062566;28;20073;-52
2021/06/05 05:19:07;;;;;;;44.10;18.65;;;;;;;;;;5058811;28;20067;-53
2021/06/05 05:21:33;;;;;;;41.28;17.50;;;;;;;;;;5062173;28;20101;-52
2021/06/05 05:23:59;;;;;;;43.22;17.63;;;;;;;;;;5059625;28;20041;-56
2021/06/05 05:26:26;;;;;;;44.65;17.58;;;;;;;;;;5063409;28;20049;-54
2021/06/05 05:28:54;;;;;;;43.50;17.98;;;;;;;;;;5057991;28;20051;-51
2021/06/05 05:31:24;;;;;;;40.65;16.80;;;;;;;;;;5072038;28;20075;-51
2021/06/05 05:33:50;;;;;;;37.25;16.98;;;;;;;;;;5069970;28;20037;-49
2021/06/05 05:36:18;;;;;;;45.63;18.25;;;;;;;;;;5063779;28;20044;-48
2021/06/05 05:38:44;;;;;;;36.90;15.70;;;;;;;;;;5052893;28;20047;-49
2021/06/05 05:41:11;;;;;;;36.55;16.60;;;;;;;;;;5061919;28;20053;-48
2021/06/05 05:43:37;;;;;;;35.67;16.17;;;;;;;;;;5064242;28;20118;-51
2021/06/05 05:46:04;;;;;;;36.55;16.25;;;;;;;;;;5064617;28;20040;-51
2021/06/05 05:48:45;;;;;;;32.47;14.48;;;;;;;;;;5066078;28;20043;-49
2021/06/05 05:51:12;;;;;;;36.90;14.77;;;;;;;;;;5059857;28;20051;-53
2021/06/05 05:53:40;;;;;;;41.05;15.32;;;;;;;;;;5062729;28;20065;-54
2021/06/05 05:56:06;;;;;;;36.17;14.95;;;;;;;;;;5057885;28;20133;-49
2021/06/05 05:58:39;;;;;;;32.92;15.02;;;;;;;;;;5060892;28;20037;-51
2021/06/05 06:01:09;;;;;;;27.58;12.43;;;;;;;;;;5054961;28;20056;-50
2021/06/05 06:03:35;;;;;;;29.55;13.23;;;;;;;;;;5041727;28;20045;-53
2021/06/05 06:06:01;;;;;;;29.45;13.70;;;;;;;;;;5052228;28;20024;-51
2021/06/05 06:08:27;;;;;;;30.42;13.02;;;;;;;;;;5078345;28;20037;-53
2021/06/05 06:10:54;;;;;;;27.23;11.52;;;;;;;;;;5060893;28;20041;-53
2021/06/05 06:13:23;;;;;;;21.38;10.88;;;;;;;;;;5062174;28;20170;-50
2021/06/05 06:15:49;;;;;;;25.35;10.82;;;;;;;;;;5071725;28;20052;-49
2021/06/05 06:18:17;;;;;;;21.02;10.30;;;;;;;;;;5078376;28;20051;-50
2021/06/05 06:20:44;;;;;;;21.30;9.85;;;;;;;;;;5077746;28;20036;-51
2021/06/05 06:23:10;;;;;;;21.15;9.60;;;;;;;;;;5082139;28;20122;-51
2021/06/05 06:25:39;;;;;;;19.48;9.70;;;;;;;;;;5079715;28;20040;-51
2021/06/05 06:28:06;;;;;;;20.52;10.23;;;;;;;;;;5081514;28;20051;-50
2021/06/05 06:30:34;;;;;;;19.13;9.70;;;;;;;;;;5096555;28;20046;-48
2021/06/05 06:33:00;;;;;;;18.05;8.77;;;;;;;;;;5081917;28;20032;-50
2021/06/05 06:35:29;;;;;;;21.48;9.02;;;;;;;;;;5080525;28;20054;-53
2021/06/05 06:37:55;;;;;;;;;;;;;;;;;;5073546;28;20057;-51
2021/06/05 06:40:22;;;;;;;16.75;8.43;;;;;;;;;;5062193;28;19960;-50
2021/06/05 06:42:48;;;;;;;18.02;9.00;;;;;;;;;;5073331;28;20076;-53
2021/06/05 06:45:15;;;;;;;24.58;9.60;;;;;;;;;;5060756;28;20055;-55
2021/06/05 06:47:41;;;;;;;16.80;9.18;;;;;;;;;;5071451;28;20051;-55
2021/06/05 06:50:07;;;;;;;16.60;9.38;;;;;;;;;;5078498;28;20044;-50
2021/06/05 06:52:35;;;;;;;18.58;8.90;;;;;;;;;;5070579;28;20036;-54
2021/06/05 06:55:01;;;;;;;18.05;8.77;;;;;;;;;;5074962;28;20103;-51
2021/06/05 06:57:28;;;;;;;15.05;7.97;;;;;;;;;;5072883;28;20060;-55
2021/06/05 06:59:54;;;;;;;17.77;7.95;;;;;;;;;;5073264;28;20122;-54
2021/06/05 07:02:20;;;;;;;12.80;7.03;;;;;;;;;;5071402;28;20097;-51
2021/06/05 07:04:46;;;;;;;13.85;7.30;;;;;;;;;;5071086;28;20040;-51
2021/06/05 07:07:12;;;;;;;11.50;6.28;;;;;;;;;;5069003;28;20060;-51
2021/06/05 07:09:39;;;;;;;11.90;6.03;;;;;;;;;;5070598;28;20045;-46
2021/06/05 07:12:06;;;;;;;11.82;6.13;;;;;;;;;;5069257;28;20040;-49
2021/06/05 07:14:32;;;;;;;12.57;6.07;;;;;;;;;;5077817;28;20103;-48
2021/06/05 07:17:00;;;;;;;9.13;5.03;;;;;;;;;;5076884;28;20048;-50
2021/06/05 07:19:32;;;;;;;10.98;5.43;;;;;;;;;;5067532;28;20041;-48
2021/06/05 07:21:58;;;;;;;11.18;5.78;;;;;;;;;;5075913;28;20058;-46
2021/06/05 07:24:25;;;;;;;10.25;5.72;;;;;;;;;;5071973;28;20049;-47
2021/06/05 07:26:52;;;;;;;13.13;5.35;;;;;;;;;;5077123;28;20048;-56
2021/06/05 07:29:19;;;;;;;8.82;5.03;;;;;;;;;;5071182;28;20051;-53
2021/06/05 07:31:48;;;;;;;10.27;4.68;;;;;;;;;;5073405;28;20040;-53
2021/06/05 07:34:14;;;;;;;10.32;5.50;;;;;;;;;;5075207;28;20048;-51
2021/06/05 07:36:41;;;;;;;12.10;5.35;;;;;;;;;;5078181;28;20116;-53
2021/06/05 07:39:10;;;;;;;13.10;5.32;;;;;;;;;;5070201;28;20147;-48
2021/06/05 07:41:36;;;;;;;9.13;5.43;;;;;;;;;;5087717;28;20056;-53
2021/06/05 07:44:05;;;;;;;11.00;5.97;;;;;;;;;;5070469;28;20028;-54
2021/06/05 07:46:31;;;;;;;12.63;5.43;;;;;;;;;;5073228;28;20058;-54
2021/06/05 07:48:57;;;;;;;11.77;5.93;;;;;;;;;;5068841;28;20099;-54
2021/06/05 07:51:23;;;;;;;12.20;5.28;;;;;;;;;;5077098;28;20056;-50
2021/06/05 07:53:49;;;;;;;10.25;6.28;;;;;;;;;;5072359;28;20044;-51
2021/06/05 07:56:15;;;;;;;14.77;6.03;;;;;;;;;;5068465;28;20036;-52
2021/06/05 07:58:42;;;;;;;11.60;5.53;;;;;;;;;;5072688;28;20055;-51
2021/06/05 08:01:10;;;;;;;11.10;6.30;;;;;;;;;;5070836;28;20036;-49
2021/06/05 08:03:36;;;;;;;11.48;5.38;;;;;;;;;;5067738;28;20048;-55
2021/06/05 08:06:02;;;;;;;12.20;5.80;;;;;;;;;;5070843;28;20043;-52
2021/06/05 08:08:28;;;;;;;11.82;5.35;;;;;;;;;;5079012;28;20042;-49
2021/06/05 08:10:54;;;;;;;13.80;5.85;;;;;;;;;;5076999;28;20044;-54
2021/06/05 08:13:20;;;;;;;12.82;6.43;;;;;;;;;;5080091;28;20043;-54
2021/06/05 08:15:47;;;;;;;9.77;5.78;;;;;;;;;;5077317;28;20055;-54
2021/06/05 08:18:16;;;;;;;11.27;5.50;;;;;;;;;;5080506;28;20036;-54
2021/06/05 08:20:43;;;;;;;11.02;5.57;;;;;;;;;;5077667;28;20084;-53
2021/06/05 08:23:13;;;;;;;10.73;5.60;;;;;;;;;;5085625;28;20032;-54
2021/06/05 08:25:39;;;;;;;11.95;5.03;;;;;;;;;;5080041;28;20052;-57
2021/06/05 08:28:07;;;;;;;10.27;5.80;;;;;;;;;;5083077;28;20039;-55
2021/06/05 08:30:35;;;;;;;11.02;5.10;;;;;;;;;;5080172;28;20121;-56
2021/06/05 08:33:01;;;;;;;13.77;6.03;;;;;;;;;;5084004;28;20048;-50
2021/06/05 08:35:28;;;;;;;10.88;5.47;;;;;;;;;;5085390;28;20055;-48
2021/06/05 08:37:54;;;;;;;10.00;5.35;;;;;;;;;;5078662;28;20040;-48
2021/06/05 08:40:23;;;;;;;10.88;5.57;;;;;;;;;;5084076;28;20101;-50
2021/06/05 08:42:50;;;;;;;9.43;5.15;;;;;;;;;;5077097;28;20052;-48
2021/06/05 08:45:17;;;;;;;10.93;5.30;;;;;;;;;;5063417;28;20056;-49
2021/06/05 08:47:44;;;;;;;10.25;5.78;;;;;;;;;;5074154;28;20040;-48
2021/06/05 08:50:12;;;;;;;10.48;5.07;;;;;;;;;;5083914;28;20048;-47
2021/06/05 08:52:47;;;;;;;13.55;5.68;;;;;;;;;;5076538;28;20053;-50
2021/06/05 08:55:17;;;;;;;13.18;5.68;;;;;;;;;;5063930;28;20068;-49
2021/06/05 08:57:46;;;;;;;9.70;5.32;;;;;;;;;;5074074;28;20044;-47
2021/06/05 09:00:15;;;;;;;9.68;5.35;;;;;;;;;;5085688;28;20053;-47
2021/06/05 09:02:40;;;;;;;;;;;;;;;;;;5084216;28;20044;-53
2021/06/05 09:05:07;;;;;;;14.02;5.30;;;;;;;;;;5081808;28;20024;-52
2021/06/05 09:07:33;;;;;;;11.30;5.25;;;;;;;;;;5074187;28;20040;-50
2021/06/05 09:10:01;;;;;;;15.75;5.97;;;;;;;;;;5062268;28;20041;-54
2021/06/05 09:12:27;;;;;;;8.07;5.00;;;;;;;;;;5063264;28;20036;-52
2021/06/05 09:14:57;;;;;;;9.27;4.68;;;;;;;;;;5082557;28;20052;-48
2021/06/05 09:17:32;;;;;;;10.98;4.97;;;;;;;;;;5079267;28;20028;-51
2021/06/05 09:20:04;;;;;;;9.90;5.22;;;;;;;;;;5079299;28;20056;-53
2021/06/05 09:22:32;;;;;;;8.38;4.70;;;;;;;;;;5079123;28;20040;-49
2021/06/05 09:24:58;;;;;;;9.75;4.93;;;;;;;;;;5077862;28;20118;-53
2021/06/05 09:27:28;;;;;;;11.50;4.43;;;;;;;;;;5061668;28;20041;-49
2021/06/05 09:29:56;;;;;;;10.30;5.50;;;;;;;;;;5074395;28;20056;-56
2021/06/05 09:32:24;;;;;;;12.10;4.97;;;;;;;;;;5081110;28;20040;-52
2021/06/05 09:34:51;;;;;;;10.67;4.93;;;;;;;;;;5079335;28;20044;-52
2021/06/05 09:37:37;;;;;;;9.73;4.72;;;;;;;;;;5077450;28;20286;-54
2021/06/05 09:40:09;;;;;;;10.32;5.90;;;;;;;;;;5072206;28;20067;-51
2021/06/05 09:42:39;;;;;;;12.65;5.53;;;;;;;;;;5079271;28;20052;-54
2021/06/05 09:45:06;;;;;;;9.80;6.03;;;;;;;;;;5075020;28;20044;-55
2021/06/05 09:47:33;;;;;;;10.18;5.65;;;;;;;;;;5101553;28;20047;-54
2021/06/05 09:50:14;;;;;;;11.93;6.80;;;;;;;;;;5085748;28;20040;-55
2021/06/05 09:52:40;;;;;;;14.73;6.47;;;;;;;;;;5079507;28;20194;-55
2021/06/05 09:55:26;;;;;;;12.77;6.65;;;;;;;;;;5075611;28;20061;-53
2021/06/05 09:57:55;;;;;;;12.63;5.88;;;;;;;;;;5062933;28;20040;-54
2021/06/05 10:00:25;;;;;;;10.48;6.20;;;;;;;;;;5073584;28;20066;-55
2021/06/05 10:02:53;;;;;;;11.98;7.07;;;;;;;;;;5081377;28;20032;-50
2021/06/05 10:05:28;;;;;;;16.67;7.18;;;;;;;;;;5079591;28;20047;-52
2021/06/05 10:07:55;;;;;;;11.10;6.60;;;;;;;;;;5080893;28;20036;-52
2021/06/05 10:10:32;;;;;;;15.45;7.95;;;;;;;;;;5069967;28;20045;-54
2021/06/05 10:13:01;;;;;;;14.73;8.13;;;;;;;;;;5061281;28;20032;-52
2021/06/05 10:15:31;;;;;;;13.40;6.85;;;;;;;;;;5066645;28;20043;-53
2021/06/05 10:17:59;;;;;;;13.40;6.93;;;;;;;;;;5076498;28;20044;-52
2021/06/05 10:20:31;;;;;;;14.57;6.88;;;;;;;;;;5060706;28;20044;-50
2021/06/05 10:22:58;;;;;;;15.98;6.72;;;;;;;;;;5075293;28;20047;-47
2021/06/05 10:25:30;;;;;;;14.85;6.55;;;;;;;;;;5079217;28;20062;-53
2021/06/05 10:27:57;;;;;;;11.30;6.40;;;;;;;;;;5080822;28;20052;-50
2021/06/05 10:30:31;;;;;;;12.63;6.25;;;;;;;;;;5077894;28;20032;-50
2021/06/05 10:32:58;;;;;;;13.75;6.82;;;;;;;;;;5083661;28;20036;-48
2021/06/05 10:35:27;;;;;;;11.90;6.63;;;;;;;;;;5082643;28;20047;-50
2021/06/05 10:37:57;;;;;;;11.00;6.70;;;;;;;;;;5081405;28;20032;-51
2021/06/05 10:40:26;;;;;;;12.13;7.03;;;;;;;;;;5082116;28;20051;-55
2021/06/05 10:42:54;;;;;;;19.70;10.73;;;;;;;;;;5077924;28;20051;-54
2021/06/05 10:45:27;;;;;;;18.10;9.77;;;;;;;;;;5098768;28;20050;-49
2021/06/05 10:47:58;;;;;;;13.25;7.07;;;;;;;;;;5077991;28;20137;-52
2021/06/05 10:50:27;;;;;;;11.50;6.03;;;;;;;;;;5083061;28;20051;-52
2021/06/05 10:52:55;;;;;;;10.70;6.03;;;;;;;;;;5074469;28;20047;-48
2021/06/05 10:55:24;;;;;;;12.10;7.13;;;;;;;;;;5061840;28;20068;-49
2021/06/05 10:58:11;;;;;;;16.58;7.68;;;;;;;;;;5069887;28;20048;-49
2021/06/05 11:00:46;;;;;;;14.85;6.70;;;;;;;;;;5080547;28;20143;-53
2021/06/05 11:03:41;;;;;;;12.15;6.97;;;;;;;;;;5078571;28;20036;-49
2021/06/05 11:06:08;;;;;;;12.48;7.03;;;;;;;;;;5079402;28;20051;-53
2021/06/05 11:08:40;;;;;;;12.53;7.23;;;;;;;;;;5065242;28;20037;-49
2021/06/05 11:11:27;;;;;;;11.07;7.22;;;;;;;;;;5059626;28;20040;-54
2021/06/05 11:13:53;;;;;;;13.25;7.32;;;;;;;;;;5027218;28;20051;-46
2021/06/05 11:16:20;;;;;;;13.73;7.00;;;;;;;;;;5073106;28;20063;-47
2021/06/05 11:18:48;;;;;;;13.60;6.75;;;;;;;;;;5074136;28;20044;-54
2021/06/05 11:21:31;;;;;;;11.98;6.70;;;;;;;;;;5062075;28;20048;-52
2021/06/05 11:24:13;;;;;;;15.20;8.60;;;;;;;;;;5076479;28;20048;-55
2021/06/05 11:26:41;;;;;;;18.45;10.35;;;;;;;;;;5073739;28;20044;-53
2021/06/05 11:29:33;;;;;;;21.30;10.27;;;;;;;;;;5069064;28;20051;-53
2021/06/05 11:32:00;;;;;;;15.52;8.80;;;;;;;;;;5081722;28;20047;-49
2021/06/05 11:34:56;;;;;;;20.13;9.70;;;;;;;;;;5077867;28;20090;-49
2021/06/05 11:37:42;;;;;;;18.02;8.80;;;;;;;;;;5083454;28;20040;-50
2021/06/05 11:40:10;;;;;;;14.90;8.90;;;;;;;;;;5074567;28;20050;-52
2021/06/05 11:42:46;;;;;;;16.50;9.27;;;;;;;;;;5079456;28;20047;-55
2021/06/05 11:45:34;;;;;;;15.98;8.77;;;;;;;;;;5076530;28;20051;-54
2021/06/05 11:48:00;;;;;;;17.95;10.40;;;;;;;;;;5081504;28;20037;-51
2021/06/05 11:50:31;;;;;;;18.90;10.55;;;;;;;;;;5074659;28;20122;-54
2021/06/05 11:53:17;;;;;;;16.75;10.27;;;;;;;;;;5062142;28;20081;-60
2021/06/05 11:55:47;;;;;;;20.17;11.93;;;;;;;;;;5073086;28;20048;-48
2021/06/05 11:58:32;;;;;;;19.15;11.10;;;;;;;;;;5080304;28;20116;-49
2021/06/05 12:01:09;;;;;;;16.85;10.40;;;;;;;;;;5077366;28;20052;-51
2021/06/05 12:03:42;;;;;;;17.77;10.75;;;;;;;;;;5079933;28;20044;-50
2021/06/05 12:06:10;;;;;;;16.83;10.00;;;;;;;;;;5079348;28;20113;-47
2021/06/05 12:08:36;;;;;;;16.58;9.65;;;;;;;;;;5080361;28;20040;-50
2021/06/05 12:11:15;;;;;;;18.63;10.35;;;;;;;;;;5079038;28;20028;-55
2021/06/05 12:13:43;;;;;;;16.70;10.10;;;;;;;;;;5081394;28;20063;-52
2021/06/05 12:16:15;;;;;;;16.42;9.82;;;;;;;;;;5067095;28;20029;-50
2021/06/05 12:18:44;;;;;;;18.98;10.60;;;;;;;;;;5058955;28;20041;-50
2021/06/05 12:21:22;;;;;;;21.05;10.43;;;;;;;;;;5063842;28;20040;-53
2021/06/05 12:23:48;;;;;;;19.73;10.35;;;;;;;;;;5080518;28;20036;-53
2021/06/05 12:26:16;;;;;;;17.48;10.45;;;;;;;;;;5078552;28;20056;-50
2021/06/05 12:28:45;;;;;;;18.85;11.50;;;;;;;;;;5080521;28;20041;-52
2021/06/05 12:31:13;;;;;;;18.02;11.05;;;;;;;;;;5069905;28;20063;-52
2021/06/05 12:33:39;;;;;;;18.50;11.48;;;;;;;;;;5076762;28;20044;-55
2021/06/05 12:36:16;;;;;;;17.65;11.13;;;;;;;;;;5073030;28;20033;-52
2021/06/05 12:38:44;;;;;;;20.58;12.15;;;;;;;;;;5090204;28;20056;-51
2021/06/05 12:41:11;;;;;;;20.85;12.63;;;;;;;;;;5076178;28;20044;-53
2021/06/05 12:43:41;;;;;;;23.80;14.30;;;;;;;;;;5079551;28;20121;-53
2021/06/05 12:46:09;;;;;;;28.35;16.67;;;;;;;;;;5078362;28;20093;-51
2021/06/05 12:48:35;;;;;;;26.03;16.40;;;;;;;;;;5080305;28;20040;-52
2021/06/05 12:51:04;;;;;;;27.42;17.30;;;;;;;;;;5079302;28;20172;-54
2021/06/05 12:53:30;;;;;;;29.65;16.83;;;;;;;;;;5058550;28;20055;-53
2021/06/05 12:55:57;;;;;;;29.92;16.50;;;;;;;;;;5088433;28;20036;-54
2021/06/05 12:58:32;;;;;;;34.33;19.73;;;;;;;;;;5076414;28;20055;-51
2021/06/05 13:00:59;;;;;;;39.38;21.75;;;;;;;;;;5079470;28;20121;-54
2021/06/05 13:03:29;;;;;;;40.40;21.88;;;;;;;;;;5077150;28;20045;-50
2021/06/05 13:06:06;;;;;;;41.38;23.73;;;;;;;;;;5080266;28;20050;-53
2021/06/05 13:08:35;;;;;;;44.23;22.40;;;;;;;;;;5077811;28;20048;-54
2021/06/05 13:11:02;;;;;;;43.97;23.23;;;;;;;;;;5069726;28;20094;-53
2021/06/05 13:13:30;;;;;;;47.33;22.45;;;;;;;;;;5059607;28;20044;-50
2021/06/05 13:16:19;;;;;;;41.28;20.40;;;;;;;;;;5054187;28;20064;-54
2021/06/05 13:18:47;;;;;;;46.85;23.60;;;;;;;;;;5056118;28;20037;-53
2021/06/05 13:21:18;;;;;;;46.30;22.23;;;;;;;;;;5058752;28;20163;-54
2021/06/05 13:23:45;;;;;;;42.53;21.95;;;;;;;;;;5077078;28;20024;-56
2021/06/05 13:26:16;;;;;;;44.08;21.70;;;;;;;;;;5062337;28;20051;-54
2021/06/05 13:28:44;;;;;;;40.30;20.85;;;;;;;;;;5069558;28;20044;-52
2021/06/05 13:31:32;;;;;;;42.97;20.45;;;;;;;;;;5074887;28;20043;-54
2021/06/05 13:34:09;;;;;;;37.45;18.35;;;;;;;;;;5061327;28;20043;-54
2021/06/05 13:36:35;;;;;;;36.63;17.65;;;;;;;;;;5065558;28;20047;-52
2021/06/05 13:39:07;;;;;;;34.75;18.27;;;;;;;;;;5066282;28;20051;-54
2021/06/05 13:41:34;;;;;;;31.90;14.90;;;;;;;;;;5060324;28;20040;-52
2021/06/05 13:44:00;;;;;;;30.38;14.82;;;;;;;;;;5083081;28;20080;-53
2021/06/05 13:46:28;;;;;;;27.52;13.18;;;;;;;;;;5075725;28;20036;-51
2021/06/05 13:49:02;;;;;;;25.65;12.68;;;;;;;;;;5067142;28;20055;-52
2021/06/05 13:51:28;;;;;;;22.58;11.80;;;;;;;;;;5084187;28;20040;-53
2021/06/05 13:53:56;;;;;;;22.30;11.73;;;;;;;;;;5081809;28;20032;-54
2021/06/05 13:56:26;;;;;;;19.98;10.70;;;;;;;;;;5082940;28;20049;-53
2021/06/05 13:58:53;;;;;;;23.45;11.68;;;;;;;;;;5065561;28;20040;-53
2021/06/05 14:01:20;;;;;;;20.90;11.32;;;;;;;;;;5068502;28;20042;-52
2021/06/05 14:03:48;;;;;;;23.38;12.25;;;;;;;;;;5082235;28;20039;-52
2021/06/05 14:06:14;;;;;;;22.42;11.75;;;;;;;;;;5077783;28;20044;-55
2021/06/05 14:08:40;;;;;;;24.27;12.00;;;;;;;;;;5082670;28;20044;-53
2021/06/05 14:11:07;;;;;;;27.00;11.88;;;;;;;;;;5064228;28;20035;-51
2021/06/05 14:13:35;;;;;;;20.17;10.60;;;;;;;;;;5044732;28;20039;-54
2021/06/05 14:16:05;;;;;;;22.92;11.30;;;;;;;;;;5094384;28;20048;-53
2021/06/05 14:18:37;;;;;;;24.17;12.65;;;;;;;;;;5058091;28;20033;-55
2021/06/05 14:21:08;;;;;;;21.10;11.23;;;;;;;;;;5068182;28;20123;-53
2021/06/05 14:23:34;;;;;;;21.83;11.30;;;;;;;;;;5073215;28;20089;-54
2021/06/05 14:26:04;;;;;;;22.58;11.45;;;;;;;;;;5081699;28;20178;-51
2021/06/05 14:28:33;;;;;;;22.08;11.55;;;;;;;;;;5081855;28;20044;-51
2021/06/05 14:31:01;;;;;;;23.98;11.60;;;;;;;;;;5075113;28;20075;-54
2021/06/05 14:33:27;;;;;;;;;;;;;;;;;;5081596;28;20056;-54